sensor_id;sensor_type;location;lat;lon;timestamp;temperature;humidity
4431;DHT22;2228;48.140;11.488;2022-09-27T00:01:43;11.90;7.20
4431;DHT22;2228;48.140;11.488;2022-09-27T00:04:10;11.90;18.30
4431;DHT22;2228;48.140;11.488;2022-09-27T00:06:37;11.90;23.10
4431;DHT22;2228;48.140;11.488;2022-09-27T00:09:04;11.90;33.80
4431;DHT22;2228;48.140;11.488;2022-09-27T00:11:33;11.80;44.00
4431;DHT22;2228;48.140;11.488;2022-09-27T00:14:00;11.70;47.90
4431;DHT22;2228;48.140;11.488;2022-09-27T00:16:30;11.80;57.80
4431;DHT22;2228;48.140;11.488;2022-09-27T00:18:59;11.70;69.40
4431;DHT22;2228;48.140;11.488;2022-09-27T00:21:27;11.70;65.30
4431;DHT22;2228;48.140;11.488;2022-09-27T00:23:55;11.70;79.30
4431;DHT22;2228;48.140;11.488;2022-09-27T00:26:22;11.70;99.90
4431;DHT22;2228;48.140;11.488;2022-09-27T00:28:49;11.70;94.60
4431;DHT22;2228;48.140;11.488;2022-09-27T00:31:18;11.60;94.70
4431;DHT22;2228;48.140;11.488;2022-09-27T00:33:48;11.40;99.90
4431;DHT22;2228;48.140;11.488;2022-09-27T00:36:15;11.30;99.90
4431;DHT22;2228;48.140;11.488;2022-09-27T00:38:42;11.30;99.90
4431;DHT22;2228;48.140;11.488;2022-09-27T00:41:13;11.30;99.90
4431;DHT22;2228;48.140;11.488;2022-09-27T00:43:46;11.20;99.90
4431;DHT22;2228;48.140;11.488;2022-09-27T00:46:18;11.20;99.90
4431;DHT22;2228;48.140;11.488;2022-09-27T00:48:55;11.10;99.90
4431;DHT22;2228;48.140;11.488;2022-09-27T00:51:24;11.10;99.90
4431;DHT22;2228;48.140;11.488;2022-09-27T00:53:52;11.10;99.90
4431;DHT22;2228;48.140;11.488;2022-09-27T00:56:25;11.20;99.90
4431;DHT22;2228;48.140;11.488;2022-09-27T00:58:55;11.20;99.90
4431;DHT22;2228;48.140;11.488;2022-09-27T01:01:24;11.20;99.90
4431;DHT22;2228;48.140;11.488;2022-09-27T01:03:56;11.20;99.90
4431;DHT22;2228;48.140;11.488;2022-09-27T01:06:27;11.00;99.90
4431;DHT22;2228;48.140;11.488;2022-09-27T01:08:53;10.90;99.90
4431;DHT22;2228;48.140;11.488;2022-09-27T01:11:37;10.90;99.90
4431;DHT22;2228;48.140;11.488;2022-09-27T01:14:35;10.70;99.90
4431;DHT22;2228;48.140;11.488;2022-09-27T01:17:16;10.60;99.90
4431;DHT22;2228;48.140;11.488;2022-09-27T01:20:12;10.70;99.90
4431;DHT22;2228;48.140;11.488;2022-09-27T01:22:50;10.70;99.90
4431;DHT22;2228;48.140;11.488;2022-09-27T01:25:35;10.60;99.90
4431;DHT22;2228;48.140;11.488;2022-09-27T01:28:20;10.60;99.90
4431;DHT22;2228;48.140;11.488;2022-09-27T01:30:56;10.70;99.90
4431;DHT22;2228;48.140;11.488;2022-09-27T01:33:35;10.80;99.90
4431;DHT22;2228;48.140;11.488;2022-09-27T01:36:09;10.70;99.90
4431;DHT22;2228;48.140;11.488;2022-09-27T01:38:46;10.70;99.90
4431;DHT22;2228;48.140;11.488;2022-09-27T01:41:24;10.40;99.90
4431;DHT22;2228;48.140;11.488;2022-09-27T01:43:58;10.30;99.90
4431;DHT22;2228;48.140;11.488;2022-09-27T01:46:32;10.20;99.90
4431;DHT22;2228;48.140;11.488;2022-09-27T01:49:03;10.10;99.90
4431;DHT22;2228;48.140;11.488;2022-09-27T01:51:36;10.10;99.90
4431;DHT22;2228;48.140;11.488;2022-09-27T01:54:06;10.10;99.90
4431;DHT22;2228;48.140;11.488;2022-09-27T01:56:38;10.10;99.90
4431;DHT22;2228;48.140;11.488;2022-09-27T01:59:09;10.10;99.90
4431;DHT22;2228;48.140;11.488;2022-09-27T02:01:40;10.20;99.90
4431;DHT22;2228;48.140;11.488;2022-09-27T02:04:11;10.20;99.90
4431;DHT22;2228;48.140;11.488;2022-09-27T02:06:42;10.20;99.90
4431;DHT22;2228;48.140;11.488;2022-09-27T02:09:13;10.20;99.90
4431;DHT22;2228;48.140;11.488;2022-09-27T02:11:44;10.30;99.90
4431;DHT22;2228;48.140;11.488;2022-09-27T02:14:17;10.30;99.90
4431;DHT22;2228;48.140;11.488;2022-09-27T02:16:49;10.30;99.90
4431;DHT22;2228;48.140;11.488;2022-09-27T02:19:26;10.20;99.90
4431;DHT22;2228;48.140;11.488;2022-09-27T02:22:03;10.10;99.90
4431;DHT22;2228;48.140;11.488;2022-09-27T02:24:35;10.10;99.90
4431;DHT22;2228;48.140;11.488;2022-09-27T02:27:08;10.10;99.90
4431;DHT22;2228;48.140;11.488;2022-09-27T02:29:40;10.10;99.90
4431;DHT22;2228;48.140;11.488;2022-09-27T02:32:10;10.10;99.90
4431;DHT22;2228;48.140;11.488;2022-09-27T02:34:38;10.20;99.90
4431;DHT22;2228;48.140;11.488;2022-09-27T02:37:06;10.10;99.90
4431;DHT22;2228;48.140;11.488;2022-09-27T02:39:33;10.00;99.90
4431;DHT22;2228;48.140;11.488;2022-09-27T02:42:00;10.10;99.90
4431;DHT22;2228;48.140;11.488;2022-09-27T02:44:28;10.20;99.90
4431;DHT22;2228;48.140;11.488;2022-09-27T02:47:20;10.20;99.90
4431;DHT22;2228;48.140;11.488;2022-09-27T02:50:13;10.20;99.90
4431;DHT22;2228;48.140;11.488;2022-09-27T02:52:49;10.30;99.90
4431;DHT22;2228;48.140;11.488;2022-09-27T02:55:20;10.40;99.90
4431;DHT22;2228;48.140;11.488;2022-09-27T02:57:57;10.40;99.90
4431;DHT22;2228;48.140;11.488;2022-09-27T03:00:30;10.50;99.90
4431;DHT22;2228;48.140;11.488;2022-09-27T03:03:07;10.60;99.90
4431;DHT22;2228;48.140;11.488;2022-09-27T03:05:39;10.50;99.90
4431;DHT22;2228;48.140;11.488;2022-09-27T03:08:08;10.60;99.90
4431;DHT22;2228;48.140;11.488;2022-09-27T03:10:35;10.60;99.90
4431;DHT22;2228;48.140;11.488;2022-09-27T03:13:02;10.60;99.90
4431;DHT22;2228;48.140;11.488;2022-09-27T03:15:29;10.60;99.90
4431;DHT22;2228;48.140;11.488;2022-09-27T03:17:56;10.60;99.90
4431;DHT22;2228;48.140;11.488;2022-09-27T03:20:24;10.60;99.90
4431;DHT22;2228;48.140;11.488;2022-09-27T03:22:51;10.60;99.90
4431;DHT22;2228;48.140;11.488;2022-09-27T03:25:19;10.60;99.90
4431;DHT22;2228;48.140;11.488;2022-09-27T03:27:46;10.60;99.90
4431;DHT22;2228;48.140;11.488;2022-09-27T03:30:13;10.60;99.90
4431;DHT22;2228;48.140;11.488;2022-09-27T03:32:41;10.60;99.90
4431;DHT22;2228;48.140;11.488;2022-09-27T03:35:09;10.70;99.90
4431;DHT22;2228;48.140;11.488;2022-09-27T03:37:38;10.60;99.90
4431;DHT22;2228;48.140;11.488;2022-09-27T03:40:06;10.60;99.90
4431;DHT22;2228;48.140;11.488;2022-09-27T03:42:33;10.50;99.90
4431;DHT22;2228;48.140;11.488;2022-09-27T03:45:00;10.60;99.90
4431;DHT22;2228;48.140;11.488;2022-09-27T03:47:27;10.50;99.90
4431;DHT22;2228;48.140;11.488;2022-09-27T03:49:54;10.40;99.90
4431;DHT22;2228;48.140;11.488;2022-09-27T03:52:21;10.40;99.90
4431;DHT22;2228;48.140;11.488;2022-09-27T03:54:49;10.40;99.90
4431;DHT22;2228;48.140;11.488;2022-09-27T03:57:16;10.20;99.90
4431;DHT22;2228;48.140;11.488;2022-09-27T03:59:43;10.30;99.90
4431;DHT22;2228;48.140;11.488;2022-09-27T04:02:09;10.10;99.90
4431;DHT22;2228;48.140;11.488;2022-09-27T04:04:36;10.00;99.90
4431;DHT22;2228;48.140;11.488;2022-09-27T04:07:03;9.90;99.90
4431;DHT22;2228;48.140;11.488;2022-09-27T04:09:30;10.10;99.90
4431;DHT22;2228;48.140;11.488;2022-09-27T04:11:58;10.00;99.90
4431;DHT22;2228;48.140;11.488;2022-09-27T04:14:25;10.20;99.90
4431;DHT22;2228;48.140;11.488;2022-09-27T04:16:51;10.10;99.90
4431;DHT22;2228;48.140;11.488;2022-09-27T04:19:18;10.00;99.90
4431;DHT22;2228;48.140;11.488;2022-09-27T04:21:45;10.00;99.90
4431;DHT22;2228;48.140;11.488;2022-09-27T04:24:12;10.00;99.90
4431;DHT22;2228;48.140;11.488;2022-09-27T04:26:39;10.00;99.90
4431;DHT22;2228;48.140;11.488;2022-09-27T04:29:07;10.00;99.90
4431;DHT22;2228;48.140;11.488;2022-09-27T04:31:34;9.90;99.90
4431;DHT22;2228;48.140;11.488;2022-09-27T04:34:02;10.00;99.90
4431;DHT22;2228;48.140;11.488;2022-09-27T04:36:30;10.00;99.90
4431;DHT22;2228;48.140;11.488;2022-09-27T04:38:57;9.80;99.90
4431;DHT22;2228;48.140;11.488;2022-09-27T04:41:25;9.80;99.90
4431;DHT22;2228;48.140;11.488;2022-09-27T04:43:53;9.80;99.90
4431;DHT22;2228;48.140;11.488;2022-09-27T04:46:22;9.90;99.90
4431;DHT22;2228;48.140;11.488;2022-09-27T04:48:49;9.80;99.90
4431;DHT22;2228;48.140;11.488;2022-09-27T04:51:16;9.70;99.90
4431;DHT22;2228;48.140;11.488;2022-09-27T04:53:44;9.70;99.90
4431;DHT22;2228;48.140;11.488;2022-09-27T04:56:12;9.70;99.90
4431;DHT22;2228;48.140;11.488;2022-09-27T04:58:40;9.70;99.90
4431;DHT22;2228;48.140;11.488;2022-09-27T05:01:07;9.60;99.90
4431;DHT22;2228;48.140;11.488;2022-09-27T05:03:36;9.70;1.00
4431;DHT22;2228;48.140;11.488;2022-09-27T05:06:03;9.70;1.00
4431;DHT22;2228;48.140;11.488;2022-09-27T05:08:30;9.80;1.00
4431;DHT22;2228;48.140;11.488;2022-09-27T05:10:57;9.80;99.90
4431;DHT22;2228;48.140;11.488;2022-09-27T05:13:24;9.90;99.90
4431;DHT22;2228;48.140;11.488;2022-09-27T05:15:50;9.80;99.90
4431;DHT22;2228;48.140;11.488;2022-09-27T05:18:17;10.00;99.90
4431;DHT22;2228;48.140;11.488;2022-09-27T05:20:45;10.00;99.90
4431;DHT22;2228;48.140;11.488;2022-09-27T05:23:12;10.00;99.90
4431;DHT22;2228;48.140;11.488;2022-09-27T05:25:39;9.90;99.90
4431;DHT22;2228;48.140;11.488;2022-09-27T05:28:06;9.90;99.90
4431;DHT22;2228;48.140;11.488;2022-09-27T05:30:34;10.00;99.90
4431;DHT22;2228;48.140;11.488;2022-09-27T05:33:01;10.00;99.90
4431;DHT22;2228;48.140;11.488;2022-09-27T05:35:28;9.90;99.90
4431;DHT22;2228;48.140;11.488;2022-09-27T05:37:57;9.90;99.90
4431;DHT22;2228;48.140;11.488;2022-09-27T05:40:25;9.90;99.90
4431;DHT22;2228;48.140;11.488;2022-09-27T05:42:54;9.90;99.90
4431;DHT22;2228;48.140;11.488;2022-09-27T05:45:22;9.80;99.90
4431;DHT22;2228;48.140;11.488;2022-09-27T05:47:54;9.80;99.90
4431;DHT22;2228;48.140;11.488;2022-09-27T05:50:21;9.80;99.90
4431;DHT22;2228;48.140;11.488;2022-09-27T05:52:48;9.60;99.90
4431;DHT22;2228;48.140;11.488;2022-09-27T05:55:16;9.70;99.90
4431;DHT22;2228;48.140;11.488;2022-09-27T05:57:53;9.60;99.90
4431;DHT22;2228;48.140;11.488;2022-09-27T06:00:21;9.70;99.90
4431;DHT22;2228;48.140;11.488;2022-09-27T06:02:52;9.60;99.90
4431;DHT22;2228;48.140;11.488;2022-09-27T06:05:20;9.50;99.90
4431;DHT22;2228;48.140;11.488;2022-09-27T06:07:47;9.60;99.90
4431;DHT22;2228;48.140;11.488;2022-09-27T06:10:16;9.60;99.90
4431;DHT22;2228;48.140;11.488;2022-09-27T06:12:43;9.70;99.90
4431;DHT22;2228;48.140;11.488;2022-09-27T06:15:11;9.70;99.90
4431;DHT22;2228;48.140;11.488;2022-09-27T06:17:39;9.70;99.90
4431;DHT22;2228;48.140;11.488;2022-09-27T06:20:07;9.70;99.90
4431;DHT22;2228;48.140;11.488;2022-09-27T06:22:34;9.70;99.90
4431;DHT22;2228;48.140;11.488;2022-09-27T06:25:02;9.70;99.90
4431;DHT22;2228;48.140;11.488;2022-09-27T06:27:30;9.80;99.90
4431;DHT22;2228;48.140;11.488;2022-09-27T06:29:57;9.90;99.90
4431;DHT22;2228;48.140;11.488;2022-09-27T06:32:23;10.00;99.90
4431;DHT22;2228;48.140;11.488;2022-09-27T06:34:50;10.00;99.90
4431;DHT22;2228;48.140;11.488;2022-09-27T06:37:17;10.10;99.90
4431;DHT22;2228;48.140;11.488;2022-09-27T06:39:44;10.30;99.90
4431;DHT22;2228;48.140;11.488;2022-09-27T06:42:13;10.30;99.90
4431;DHT22;2228;48.140;11.488;2022-09-27T06:44:42;10.40;99.90
4431;DHT22;2228;48.140;11.488;2022-09-27T06:47:08;10.50;99.90
4431;DHT22;2228;48.140;11.488;2022-09-27T06:49:36;10.60;99.90
4431;DHT22;2228;48.140;11.488;2022-09-27T06:52:04;10.70;99.90
4431;DHT22;2228;48.140;11.488;2022-09-27T06:54:31;10.70;99.90
4431;DHT22;2228;48.140;11.488;2022-09-27T06:56:58;10.70;99.90
4431;DHT22;2228;48.140;11.488;2022-09-27T06:59:25;10.70;99.90
4431;DHT22;2228;48.140;11.488;2022-09-27T07:02:10;10.80;99.90
4431;DHT22;2228;48.140;11.488;2022-09-27T07:04:37;11.20;99.90
4431;DHT22;2228;48.140;11.488;2022-09-27T07:07:04;11.30;75.40
4431;DHT22;2228;48.140;11.488;2022-09-27T07:09:31;11.30;25.40
4431;DHT22;2228;48.140;11.488;2022-09-27T07:11:58;11.20;12.90
4431;DHT22;2228;48.140;11.488;2022-09-27T07:14:24;11.20;50.30
4431;DHT22;2228;48.140;11.488;2022-09-27T07:16:52;11.30;30.00
4431;DHT22;2228;48.140;11.488;2022-09-27T07:19:20;11.40;24.00
4431;DHT22;2228;48.140;11.488;2022-09-27T07:21:49;11.40;17.20
4431;DHT22;2228;48.140;11.488;2022-09-27T07:24:16;11.30;25.70
4431;DHT22;2228;48.140;11.488;2022-09-27T07:26:43;11.40;37.70
4431;DHT22;2228;48.140;11.488;2022-09-27T07:29:09;11.20;53.50
4431;DHT22;2228;48.140;11.488;2022-09-27T07:31:36;11.40;55.70
4431;DHT22;2228;48.140;11.488;2022-09-27T07:34:03;11.40;73.00
4431;DHT22;2228;48.140;11.488;2022-09-27T07:36:31;11.50;58.70
4431;DHT22;2228;48.140;11.488;2022-09-27T07:38:58;11.50;75.00
4431;DHT22;2228;48.140;11.488;2022-09-27T07:41:25;11.50;33.60
4431;DHT22;2228;48.140;11.488;2022-09-27T07:43:52;11.60;36.90
4431;DHT22;2228;48.140;11.488;2022-09-27T07:46:19;11.80;37.30
4431;DHT22;2228;48.140;11.488;2022-09-27T07:48:46;12.00;18.30
4431;DHT22;2228;48.140;11.488;2022-09-27T07:51:13;12.00;5.50
4431;DHT22;2228;48.140;11.488;2022-09-27T07:53:42;11.90;16.50
4431;DHT22;2228;48.140;11.488;2022-09-27T07:56:08;12.10;5.60
4431;DHT22;2228;48.140;11.488;2022-09-27T07:58:35;12.30;1.00
4431;DHT22;2228;48.140;11.488;2022-09-27T08:01:02;12.60;1.00
4431;DHT22;2228;48.140;11.488;2022-09-27T08:03:29;12.80;1.00
4431;DHT22;2228;48.140;11.488;2022-09-27T08:05:56;12.80;1.00
4431;DHT22;2228;48.140;11.488;2022-09-27T08:08:23;12.00;1.00
4431;DHT22;2228;48.140;11.488;2022-09-27T08:10:51;10.90;34.40
4431;DHT22;2228;48.140;11.488;2022-09-27T08:13:17;10.20;99.90
4431;DHT22;2228;48.140;11.488;2022-09-27T08:15:45;9.70;99.90
4431;DHT22;2228;48.140;11.488;2022-09-27T08:18:13;9.40;99.90
4431;DHT22;2228;48.140;11.488;2022-09-27T08:20:40;9.20;99.90
4431;DHT22;2228;48.140;11.488;2022-09-27T08:23:07;8.90;99.90
4431;DHT22;2228;48.140;11.488;2022-09-27T08:25:34;8.80;99.90
4431;DHT22;2228;48.140;11.488;2022-09-27T08:30:30;8.80;99.90
4431;DHT22;2228;48.140;11.488;2022-09-27T08:32:58;8.80;99.90
4431;DHT22;2228;48.140;11.488;2022-09-27T08:35:27;8.80;99.90
4431;DHT22;2228;48.140;11.488;2022-09-27T08:37:55;8.80;99.90
4431;DHT22;2228;48.140;11.488;2022-09-27T08:40:29;8.80;99.90
4431;DHT22;2228;48.140;11.488;2022-09-27T08:43:04;9.00;99.90
4431;DHT22;2228;48.140;11.488;2022-09-27T08:45:36;9.20;99.90
4431;DHT22;2228;48.140;11.488;2022-09-27T08:48:05;9.20;99.90
4431;DHT22;2228;48.140;11.488;2022-09-27T08:50:35;9.30;99.90
4431;DHT22;2228;48.140;11.488;2022-09-27T08:53:06;9.60;99.90
4431;DHT22;2228;48.140;11.488;2022-09-27T08:55:41;9.90;99.90
4431;DHT22;2228;48.140;11.488;2022-09-27T08:58:13;10.20;99.90
4431;DHT22;2228;48.140;11.488;2022-09-27T09:00:42;10.30;99.90
4431;DHT22;2228;48.140;11.488;2022-09-27T09:03:16;10.10;99.90
4431;DHT22;2228;48.140;11.488;2022-09-27T09:05:51;10.00;99.90
4431;DHT22;2228;48.140;11.488;2022-09-27T09:08:30;9.90;99.90
4431;DHT22;2228;48.140;11.488;2022-09-27T09:11:07;9.90;99.90
4431;DHT22;2228;48.140;11.488;2022-09-27T09:16:54;10.00;99.90
4431;DHT22;2228;48.140;11.488;2022-09-27T09:22:32;10.60;99.90
4431;DHT22;2228;48.140;11.488;2022-09-27T09:25:15;11.00;99.90
4431;DHT22;2228;48.140;11.488;2022-09-27T09:27:53;11.30;73.70
4431;DHT22;2228;48.140;11.488;2022-09-27T09:30:31;11.70;1.00
4431;DHT22;2228;48.140;11.488;2022-09-27T09:33:13;12.00;6.90
4431;DHT22;2228;48.140;11.488;2022-09-27T09:35:45;12.40;1.20
4431;DHT22;2228;48.140;11.488;2022-09-27T09:38:16;12.60;1.00
4431;DHT22;2228;48.140;11.488;2022-09-27T09:40:46;12.50;1.00
4431;DHT22;2228;48.140;11.488;2022-09-27T09:43:17;12.20;1.00
4431;DHT22;2228;48.140;11.488;2022-09-27T09:45:50;11.90;1.00
4431;DHT22;2228;48.140;11.488;2022-09-27T09:50:53;11.20;1.00
4431;DHT22;2228;48.140;11.488;2022-09-27T09:55:56;11.00;1.00
4431;DHT22;2228;48.140;11.488;2022-09-27T09:58:28;11.20;16.40
4431;DHT22;2228;48.140;11.488;2022-09-27T10:01:04;11.40;1.00
4431;DHT22;2228;48.140;11.488;2022-09-27T10:03:35;11.60;1.00
4431;DHT22;2228;48.140;11.488;2022-09-27T10:06:02;11.80;1.00
4431;DHT22;2228;48.140;11.488;2022-09-27T10:08:29;11.80;1.00
4431;DHT22;2228;48.140;11.488;2022-09-27T10:10:57;11.80;1.00
4431;DHT22;2228;48.140;11.488;2022-09-27T10:13:24;11.80;1.00
4431;DHT22;2228;48.140;11.488;2022-09-27T10:15:54;11.70;1.00
4431;DHT22;2228;48.140;11.488;2022-09-27T10:18:26;11.70;1.00
4431;DHT22;2228;48.140;11.488;2022-09-27T10:20:56;11.40;1.00
4431;DHT22;2228;48.140;11.488;2022-09-27T10:23:24;11.30;19.50
4431;DHT22;2228;48.140;11.488;2022-09-27T10:25:53;11.20;13.60
4431;DHT22;2228;48.140;11.488;2022-09-27T10:28:32;11.20;35.40
4431;DHT22;2228;48.140;11.488;2022-09-27T10:31:03;11.30;25.00
4431;DHT22;2228;48.140;11.488;2022-09-27T10:33:33;11.50;13.90
4431;DHT22;2228;48.140;11.488;2022-09-27T10:36:01;11.80;1.00
4431;DHT22;2228;48.140;11.488;2022-09-27T10:38:30;11.60;1.00
4431;DHT22;2228;48.140;11.488;2022-09-27T10:41:15;11.20;88.70
4431;DHT22;2228;48.140;11.488;2022-09-27T10:43:42;10.90;99.90
4431;DHT22;2228;48.140;11.488;2022-09-27T10:46:13;10.30;99.90
4431;DHT22;2228;48.140;11.488;2022-09-27T10:48:43;9.90;99.90
4431;DHT22;2228;48.140;11.488;2022-09-27T10:51:25;9.60;99.90
4431;DHT22;2228;48.140;11.488;2022-09-27T10:53:55;9.60;99.90
4431;DHT22;2228;48.140;11.488;2022-09-27T10:56:27;9.80;99.90
4431;DHT22;2228;48.140;11.488;2022-09-27T10:58:55;9.80;99.90
4431;DHT22;2228;48.140;11.488;2022-09-27T11:01:24;10.40;99.90
4431;DHT22;2228;48.140;11.488;2022-09-27T11:03:55;11.00;99.90
4431;DHT22;2228;48.140;11.488;2022-09-27T11:06:29;11.40;99.90
4431;DHT22;2228;48.140;11.488;2022-09-27T11:09:09;12.10;99.90
4431;DHT22;2228;48.140;11.488;2022-09-27T11:11:40;12.70;99.90
4431;DHT22;2228;48.140;11.488;2022-09-27T11:14:17;12.60;40.00
4431;DHT22;2228;48.140;11.488;2022-09-27T11:16:54;12.30;90.20
4431;DHT22;2228;48.140;11.488;2022-09-27T11:19:40;12.10;43.40
4431;DHT22;2228;48.140;11.488;2022-09-27T11:22:25;11.80;84.00
4431;DHT22;2228;48.140;11.488;2022-09-27T11:25:01;11.40;79.80
4431;DHT22;2228;48.140;11.488;2022-09-27T11:27:42;11.00;30.50
4431;DHT22;2228;48.140;11.488;2022-09-27T11:30:14;10.70;96.60
4431;DHT22;2228;48.140;11.488;2022-09-27T11:33:04;10.50;99.90
4431;DHT22;2228;48.140;11.488;2022-09-27T11:35:47;10.40;99.90
4431;DHT22;2228;48.140;11.488;2022-09-27T11:38:22;10.30;99.90
4431;DHT22;2228;48.140;11.488;2022-09-27T11:41:09;10.20;99.90
4431;DHT22;2228;48.140;11.488;2022-09-27T11:43:57;10.30;97.70
4431;DHT22;2228;48.140;11.488;2022-09-27T11:46:29;10.50;99.70
4431;DHT22;2228;48.140;11.488;2022-09-27T11:49:21;11.70;94.20
4431;DHT22;2228;48.140;11.488;2022-09-27T11:52:19;12.80;1.00
4431;DHT22;2228;48.140;11.488;2022-09-27T11:55:02;13.50;1.00
4431;DHT22;2228;48.140;11.488;2022-09-27T11:57:38;13.30;1.00
4431;DHT22;2228;48.140;11.488;2022-09-27T12:00:15;13.10;1.00
4431;DHT22;2228;48.140;11.488;2022-09-27T12:03:06;12.60;1.00
4431;DHT22;2228;48.140;11.488;2022-09-27T12:05:45;12.30;1.00
4431;DHT22;2228;48.140;11.488;2022-09-27T12:08:29;11.80;1.00
4431;DHT22;2228;48.140;11.488;2022-09-27T12:11:02;11.80;1.00
4431;DHT22;2228;48.140;11.488;2022-09-27T12:13:36;11.80;1.00
4431;DHT22;2228;48.140;11.488;2022-09-27T12:16:05;11.60;17.00
4431;DHT22;2228;48.140;11.488;2022-09-27T12:18:35;11.10;79.60
4431;DHT22;2228;48.140;11.488;2022-09-27T12:21:05;10.60;99.90
4431;DHT22;2228;48.140;11.488;2022-09-27T12:23:38;10.20;99.90
4431;DHT22;2228;48.140;11.488;2022-09-27T12:26:10;10.00;99.90
4431;DHT22;2228;48.140;11.488;2022-09-27T12:28:45;10.10;99.90
4431;DHT22;2228;48.140;11.488;2022-09-27T12:31:17;10.30;99.90
4431;DHT22;2228;48.140;11.488;2022-09-27T12:33:52;10.40;99.90
4431;DHT22;2228;48.140;11.488;2022-09-27T12:36:25;10.80;99.90
4431;DHT22;2228;48.140;11.488;2022-09-27T12:39:00;11.50;99.90
4431;DHT22;2228;48.140;11.488;2022-09-27T12:41:32;11.80;84.70
4431;DHT22;2228;48.140;11.488;2022-09-27T12:44:01;11.90;90.40
4431;DHT22;2228;48.140;11.488;2022-09-27T12:46:36;12.00;67.20
4431;DHT22;2228;48.140;11.488;2022-09-27T12:49:09;12.20;42.80
4431;DHT22;2228;48.140;11.488;2022-09-27T12:51:39;12.40;46.80
4431;DHT22;2228;48.140;11.488;2022-09-27T12:57:22;12.20;5.60
4431;DHT22;2228;48.140;11.488;2022-09-27T13:00:00;12.00;47.60
4431;DHT22;2228;48.140;11.488;2022-09-27T13:02:50;12.00;29.80
4431;DHT22;2228;48.140;11.488;2022-09-27T13:05:43;12.20;26.50
4431;DHT22;2228;48.140;11.488;2022-09-27T13:08:28;12.20;20.20
4431;DHT22;2228;48.140;11.488;2022-09-27T13:11:07;12.70;14.10
4431;DHT22;2228;48.140;11.488;2022-09-27T13:13:39;13.30;1.00
4431;DHT22;2228;48.140;11.488;2022-09-27T13:16:06;13.60;1.00
4431;DHT22;2228;48.140;11.488;2022-09-27T13:18:52;13.20;1.00
4431;DHT22;2228;48.140;11.488;2022-09-27T13:21:56;13.20;1.00
4431;DHT22;2228;48.140;11.488;2022-09-27T13:27:36;13.70;1.00
4431;DHT22;2228;48.140;11.488;2022-09-27T13:35:32;13.10;1.00
4431;DHT22;2228;48.140;11.488;2022-09-27T13:37:59;13.20;1.00
4431;DHT22;2228;48.140;11.488;2022-09-27T13:40:31;13.30;1.00
4431;DHT22;2228;48.140;11.488;2022-09-27T13:46:16;12.90;1.00
4431;DHT22;2228;48.140;11.488;2022-09-27T13:48:48;12.80;1.00
4431;DHT22;2228;48.140;11.488;2022-09-27T13:51:20;12.60;1.00
4431;DHT22;2228;48.140;11.488;2022-09-27T13:53:57;12.50;1.00
4431;DHT22;2228;48.140;11.488;2022-09-27T13:56:51;12.40;1.00
4431;DHT22;2228;48.140;11.488;2022-09-27T13:59:23;12.20;1.00
4431;DHT22;2228;48.140;11.488;2022-09-27T14:01:54;12.10;1.00
4431;DHT22;2228;48.140;11.488;2022-09-27T14:04:26;12.20;1.00
4431;DHT22;2228;48.140;11.488;2022-09-27T14:06:56;12.20;1.00
4431;DHT22;2228;48.140;11.488;2022-09-27T14:09:26;12.20;1.00
4431;DHT22;2228;48.140;11.488;2022-09-27T14:11:57;12.30;1.00
4431;DHT22;2228;48.140;11.488;2022-09-27T14:14:28;12.20;1.00
4431;DHT22;2228;48.140;11.488;2022-09-27T14:16:58;12.00;1.00
4431;DHT22;2228;48.140;11.488;2022-09-27T14:19:27;11.90;1.00
4431;DHT22;2228;48.140;11.488;2022-09-27T14:21:54;11.90;1.00
4431;DHT22;2228;48.140;11.488;2022-09-27T14:24:27;12.00;1.00
4431;DHT22;2228;48.140;11.488;2022-09-27T14:27:13;13.40;1.00
4431;DHT22;2228;48.140;11.488;2022-09-27T14:29:45;14.30;1.00
4431;DHT22;2228;48.140;11.488;2022-09-27T14:32:14;14.80;1.00
4431;DHT22;2228;48.140;11.488;2022-09-27T14:34:42;14.70;1.00
4431;DHT22;2228;48.140;11.488;2022-09-27T14:37:21;14.20;1.00
4431;DHT22;2228;48.140;11.488;2022-09-27T14:40:02;13.80;1.00
4431;DHT22;2228;48.140;11.488;2022-09-27T14:42:33;13.00;1.00
4431;DHT22;2228;48.140;11.488;2022-09-27T14:45:12;12.40;1.00
4431;DHT22;2228;48.140;11.488;2022-09-27T14:47:45;12.00;1.00
4431;DHT22;2228;48.140;11.488;2022-09-27T14:50:17;11.90;1.00
4431;DHT22;2228;48.140;11.488;2022-09-27T14:52:45;11.80;1.00
4431;DHT22;2228;48.140;11.488;2022-09-27T14:55:16;11.70;1.00
4431;DHT22;2228;48.140;11.488;2022-09-27T14:57:46;11.70;1.00
4431;DHT22;2228;48.140;11.488;2022-09-27T15:00:19;11.60;1.00
4431;DHT22;2228;48.140;11.488;2022-09-27T15:02:47;11.50;1.00
4431;DHT22;2228;48.140;11.488;2022-09-27T15:05:19;11.50;1.00
4431;DHT22;2228;48.140;11.488;2022-09-27T15:07:47;11.50;1.00
4431;DHT22;2228;48.140;11.488;2022-09-27T15:10:16;11.50;1.00
4431;DHT22;2228;48.140;11.488;2022-09-27T15:12:47;11.70;1.00
4431;DHT22;2228;48.140;11.488;2022-09-27T15:15:19;11.60;1.00
4431;DHT22;2228;48.140;11.488;2022-09-27T15:17:47;11.60;1.00
4431;DHT22;2228;48.140;11.488;2022-09-27T15:20:22;11.40;1.00
4431;DHT22;2228;48.140;11.488;2022-09-27T15:22:52;11.40;1.00
4431;DHT22;2228;48.140;11.488;2022-09-27T15:25:23;11.40;1.00
4431;DHT22;2228;48.140;11.488;2022-09-27T15:28:01;11.30;1.00
4431;DHT22;2228;48.140;11.488;2022-09-27T15:30:35;11.50;1.00
4431;DHT22;2228;48.140;11.488;2022-09-27T15:33:03;12.00;1.00
4431;DHT22;2228;48.140;11.488;2022-09-27T15:35:32;13.30;1.00
4431;DHT22;2228;48.140;11.488;2022-09-27T15:38:26;14.00;1.00
4431;DHT22;2228;48.140;11.488;2022-09-27T15:41:07;15.20;1.00
4431;DHT22;2228;48.140;11.488;2022-09-27T15:43:37;15.00;1.00
4431;DHT22;2228;48.140;11.488;2022-09-27T15:46:25;14.40;1.00
4431;DHT22;2228;48.140;11.488;2022-09-27T15:49:21;13.60;1.00
4431;DHT22;2228;48.140;11.488;2022-09-27T15:51:52;12.90;1.00
4431;DHT22;2228;48.140;11.488;2022-09-27T15:54:20;12.20;1.00
4431;DHT22;2228;48.140;11.488;2022-09-27T15:56:49;12.10;1.00
4431;DHT22;2228;48.140;11.488;2022-09-27T15:59:20;11.90;1.00
4431;DHT22;2228;48.140;11.488;2022-09-27T16:01:50;11.70;1.00
4431;DHT22;2228;48.140;11.488;2022-09-27T16:06:49;11.20;1.00
4431;DHT22;2228;48.140;11.488;2022-09-27T16:09:17;10.90;39.00
4431;DHT22;2228;48.140;11.488;2022-09-27T16:11:45;10.40;99.90
4431;DHT22;2228;48.140;11.488;2022-09-27T16:14:12;10.10;99.90
4431;DHT22;2228;48.140;11.488;2022-09-27T16:16:42;10.00;99.90
4431;DHT22;2228;48.140;11.488;2022-09-27T16:19:10;9.90;99.90
4431;DHT22;2228;48.140;11.488;2022-09-27T16:21:37;9.90;99.90
4431;DHT22;2228;48.140;11.488;2022-09-27T16:24:05;9.90;99.90
4431;DHT22;2228;48.140;11.488;2022-09-27T16:26:32;9.80;99.90
4431;DHT22;2228;48.140;11.488;2022-09-27T16:28:59;9.80;99.90
4431;DHT22;2228;48.140;11.488;2022-09-27T16:31:27;9.70;99.90
4431;DHT22;2228;48.140;11.488;2022-09-27T16:33:53;9.60;99.90
4431;DHT22;2228;48.140;11.488;2022-09-27T16:36:22;9.60;99.90
4431;DHT22;2228;48.140;11.488;2022-09-27T16:38:49;9.50;99.90
4431;DHT22;2228;48.140;11.488;2022-09-27T16:41:16;9.40;99.90
4431;DHT22;2228;48.140;11.488;2022-09-27T16:43:44;9.40;99.90
4431;DHT22;2228;48.140;11.488;2022-09-27T16:46:12;9.40;99.90
4431;DHT22;2228;48.140;11.488;2022-09-27T16:48:43;9.40;99.90
4431;DHT22;2228;48.140;11.488;2022-09-27T16:51:12;9.50;99.90